Terminal Aerodrome Forecast
Issued by NWS

Home | Current Version | Previous Version | Text Only | Print | Product List | Glossary On
Versions: 1 2 3 4 5 6 7 8 9 10 11 12 13 14 15 16 17 18
000
FTUS45 KGJT 202000 AAB
TAFASE
TAF AMD
KASE 202000Z 2020/2118 35010G18KT P6SM VCTS SCT040CB BKN070
      TEMPO 2020/2022 -SHRA BKN040
     FM210200 21005KT P6SM FEW080 SCT200
     FM210800 17006KT P6SM SKC
     FM211700 36007KT P6SM FEW100=

USA.gov is the U.S. government's official web portal to all federal, state and local government web resources and services.